createdAt,value
2019-04-14T00:02:27.204Z,99.90
2019-04-14T00:04:59.436Z,99.90
2019-04-14T00:07:29.832Z,99.90
2019-04-14T00:09:59.269Z,99.90
2019-04-14T00:12:29.496Z,99.90
2019-04-14T00:14:59.812Z,99.90
2019-04-14T00:17:30.368Z,99.90
2019-04-14T00:20:00.983Z,99.90
2019-04-14T00:22:31.035Z,99.90
2019-04-14T00:25:02.402Z,99.90
2019-04-14T00:27:32.407Z,99.90
2019-04-14T00:30:01.771Z,99.90
2019-04-14T00:32:33.419Z,99.90
2019-04-14T00:35:10.516Z,99.90
2019-04-14T00:37:59.459Z,99.90
2019-04-14T00:40:34.660Z,99.90
2019-04-14T00:43:28.728Z,99.90
2019-04-14T00:46:04.338Z,99.90
2019-04-14T00:48:34.180Z,99.90
2019-04-14T00:51:06.892Z,99.90
2019-04-14T00:53:36.295Z,99.90
2019-04-14T00:56:06.185Z,99.90
2019-04-14T00:58:36.597Z,99.90
2019-04-14T01:01:06.962Z,99.90
2019-04-14T01:03:37.323Z,99.90
2019-04-14T01:06:07.661Z,99.90
2019-04-14T01:08:40.227Z,99.90
2019-04-14T01:11:09.709Z,99.90
2019-04-14T01:13:39.779Z,99.90
2019-04-14T01:16:15.456Z,99.90
2019-04-14T01:18:40.771Z,99.90
2019-04-14T01:21:11.044Z,99.90
2019-04-14T01:23:41.231Z,99.90
2019-04-14T01:26:11.727Z,99.90
2019-04-14T01:28:41.888Z,99.90
2019-04-14T01:31:11.982Z,99.90
2019-04-14T01:33:42.315Z,99.90
2019-04-14T01:36:12.777Z,99.90
2019-04-14T01:38:42.842Z,99.90
2019-04-14T01:41:12.812Z,99.90
2019-04-14T01:43:42.821Z,99.90
2019-04-14T01:46:18.447Z,99.90
2019-04-14T01:48:43.308Z,99.90
2019-04-14T01:51:35.251Z,99.90
2019-04-14T01:54:23.510Z,99.90
2019-04-14T01:57:13.090Z,99.90
2019-04-14T01:59:43.772Z,99.90
2019-04-14T02:02:16.250Z,99.90
2019-04-14T02:04:46.418Z,99.90
2019-04-14T02:07:16.635Z,99.90
2019-04-14T02:09:46.849Z,99.90
2019-04-14T02:12:16.997Z,99.90
2019-04-14T02:14:47.401Z,99.90
2019-04-14T02:17:17.776Z,99.90
2019-04-14T02:19:48.114Z,99.90
2019-04-14T02:22:18.164Z,99.90
2019-04-14T02:24:50.398Z,99.90
2019-04-14T02:27:20.938Z,99.90
2019-04-14T02:29:51.543Z,99.90
2019-04-14T02:32:49.399Z,99.90
2019-04-14T02:35:20.965Z,99.90
2019-04-14T02:37:54.658Z,99.90
2019-04-14T02:43:02.748Z,99.90
2019-04-14T02:45:29.950Z,99.90
2019-04-14T02:48:14.501Z,99.90
2019-04-14T02:53:03.748Z,99.90
2019-04-14T02:55:21.683Z,99.90
2019-04-14T02:58:01.763Z,99.90
2019-04-14T03:00:31.771Z,99.90
2019-04-14T03:03:05.892Z,99.90
2019-04-14T03:08:00.450Z,99.90
2019-04-14T03:10:31.850Z,99.90
2019-04-14T03:13:09.451Z,99.90
2019-04-14T03:15:39.788Z,99.90
2019-04-14T03:21:19.966Z,99.90
2019-04-14T03:26:46.367Z,99.90
2019-04-14T03:29:24.772Z,99.90
2019-04-14T03:34:37.112Z,99.90
2019-04-14T03:39:33.560Z,99.90
2019-04-14T03:42:01.021Z,99.90
2019-04-14T03:47:08.696Z,99.90
2019-04-14T03:49:31.638Z,99.90
2019-04-14T03:51:57.654Z,99.90
2019-04-14T03:54:27.244Z,99.90
2019-04-14T03:57:06.287Z,99.90
2019-04-14T03:59:36.683Z,99.90
2019-04-14T04:02:08.240Z,99.90
2019-04-14T04:04:38.031Z,99.90
2019-04-14T04:07:08.230Z,99.90
2019-04-14T04:09:56.111Z,99.90
2019-04-14T04:12:27.058Z,99.90
2019-04-14T04:14:57.425Z,99.90
2019-04-14T04:17:51.693Z,99.90
2019-04-14T04:20:43.459Z,99.90
2019-04-14T04:23:29.164Z,99.90
2019-04-14T04:26:06.523Z,99.90
2019-04-14T04:28:58.350Z,99.90
2019-04-14T04:31:56.835Z,99.90
2019-04-14T04:34:44.565Z,99.90
2019-04-14T04:37:21.407Z,99.90
2019-04-14T04:39:51.846Z,99.90
2019-04-14T04:42:21.970Z,99.90
2019-04-14T04:44:51.470Z,99.90
2019-04-14T04:47:20.968Z,99.90
2019-04-14T04:49:51.219Z,99.90
2019-04-14T04:52:21.259Z,99.90
2019-04-14T04:54:51.635Z,99.90
2019-04-14T04:57:22.082Z,99.90
2019-04-14T04:59:51.732Z,99.90
2019-04-14T05:02:22.098Z,99.90
2019-04-14T05:04:52.582Z,99.90
2019-04-14T05:07:23.022Z,99.90
2019-04-14T05:10:11.023Z,99.90
2019-04-14T05:13:11.879Z,99.90
2019-04-14T05:15:58.158Z,99.90
2019-04-14T05:18:28.992Z,99.90
2019-04-14T05:20:59.638Z,99.90
2019-04-14T05:23:29.923Z,99.90
2019-04-14T05:26:00.465Z,99.90
2019-04-14T05:28:31.024Z,99.90
2019-04-14T05:31:01.307Z,99.90
2019-04-14T05:33:31.485Z,99.90
2019-04-14T05:36:01.995Z,99.90
2019-04-14T05:38:33.726Z,99.90
2019-04-14T05:41:02.793Z,99.90
2019-04-14T05:43:41.631Z,99.90
2019-04-14T05:46:03.515Z,99.90
2019-04-14T05:48:33.727Z,99.90
2019-04-14T05:51:04.178Z,99.90
2019-04-14T05:53:33.589Z,99.90
2019-04-14T05:56:03.557Z,99.90
2019-04-14T05:58:33.929Z,99.90
2019-04-14T06:01:03.288Z,99.90
2019-04-14T06:03:32.582Z,99.90
2019-04-14T06:06:02.025Z,99.90
2019-04-14T06:08:31.428Z,99.90
2019-04-14T06:11:00.854Z,99.90
2019-04-14T06:13:30.236Z,99.90
2019-04-14T06:15:59.567Z,99.90
2019-04-14T06:18:28.949Z,99.90
2019-04-14T06:20:58.256Z,99.90
2019-04-14T06:23:27.566Z,99.90
2019-04-14T06:25:56.894Z,99.90
2019-04-14T06:28:28.718Z,99.90
2019-04-14T06:31:16.994Z,99.90
2019-04-14T06:34:05.257Z,99.90
2019-04-14T06:36:59.684Z,99.90
2019-04-14T06:39:32.097Z,99.90
2019-04-14T06:42:01.408Z,99.90
2019-04-14T06:44:30.744Z,99.90
2019-04-14T06:47:00.188Z,99.90
2019-04-14T06:49:29.480Z,99.90
2019-04-14T06:51:58.780Z,99.90
2019-04-14T06:54:28.131Z,99.90
2019-04-14T06:56:57.427Z,99.90
2019-04-14T06:59:26.841Z,99.90
2019-04-14T07:01:56.267Z,99.90
2019-04-14T07:04:25.563Z,99.90
2019-04-14T07:06:54.894Z,99.90
2019-04-14T07:09:24.228Z,99.90
2019-04-14T07:11:53.563Z,99.90
2019-04-14T07:14:22.940Z,99.90
2019-04-14T07:16:52.319Z,99.90
2019-04-14T07:19:21.663Z,99.90
2019-04-14T07:21:51.004Z,99.90
2019-04-14T07:24:20.384Z,99.90
2019-04-14T07:26:49.690Z,99.90
2019-04-14T07:29:21.476Z,99.90
2019-04-14T07:32:11.739Z,99.90
2019-04-14T07:34:56.988Z,99.90
2019-04-14T07:37:43.312Z,99.90
2019-04-14T07:40:40.599Z,99.90
2019-04-14T07:43:31.767Z,99.90
2019-04-14T07:46:09.148Z,99.90
2019-04-14T07:49:00.292Z,99.90
2019-04-14T07:51:38.256Z,99.90
2019-04-14T07:54:41.149Z,99.90
2019-04-14T07:57:37.702Z,99.90
2019-04-14T08:00:13.786Z,99.90
2019-04-14T08:02:50.784Z,99.90
2019-04-14T08:05:24.185Z,99.90
2019-04-14T08:07:55.791Z,99.90
2019-04-14T08:10:25.153Z,99.90
2019-04-14T08:12:54.528Z,99.90
2019-04-14T08:15:23.891Z,99.90
2019-04-14T08:17:53.259Z,99.90
2019-04-14T08:20:27.619Z,99.90
2019-04-14T08:22:53.972Z,99.90
2019-04-14T08:25:23.355Z,99.90
2019-04-14T08:27:52.799Z,99.90
2019-04-14T08:30:22.244Z,99.90
2019-04-14T08:32:51.783Z,99.90
2019-04-14T08:35:21.092Z,99.90
2019-04-14T08:37:50.473Z,99.90
2019-04-14T08:40:19.933Z,99.90
2019-04-14T08:43:10.879Z,99.90
2019-04-14T08:46:01.924Z,99.90
2019-04-14T08:48:57.339Z,99.90
2019-04-14T08:51:40.956Z,99.90
2019-04-14T08:54:32.480Z,99.90
2019-04-14T08:57:23.680Z,99.90
2019-04-14T08:59:59.817Z,99.90
2019-04-14T09:02:48.116Z,99.90
2019-04-14T09:05:40.125Z,99.90
2019-04-14T09:08:22.639Z,99.90
2019-04-14T09:10:55.827Z,99.90
2019-04-14T09:13:25.244Z,99.90
2019-04-14T09:15:54.558Z,99.90
2019-04-14T09:18:23.935Z,99.90
2019-04-14T09:20:53.418Z,99.90
2019-04-14T09:23:22.835Z,99.90
2019-04-14T09:25:52.216Z,99.90
2019-04-14T09:28:21.544Z,99.90
2019-04-14T09:30:50.996Z,99.90
2019-04-14T09:33:20.383Z,99.90
2019-04-14T09:35:49.761Z,99.90
2019-04-14T09:38:19.234Z,99.90
2019-04-14T09:40:48.673Z,99.90
2019-04-14T09:43:18.449Z,99.90
2019-04-14T09:45:47.811Z,99.90
2019-04-14T09:48:17.278Z,99.90
2019-04-14T09:50:46.662Z,99.90
2019-04-14T09:53:17.489Z,99.90
2019-04-14T09:55:48.145Z,99.90
2019-04-14T09:58:22.131Z,99.90
2019-04-14T10:00:51.510Z,99.90
2019-04-14T10:03:20.936Z,99.90
2019-04-14T10:05:50.328Z,99.90
2019-04-14T10:08:19.861Z,99.90
2019-04-14T10:10:49.380Z,99.90
2019-04-14T10:13:19.292Z,99.90
2019-04-14T10:15:48.800Z,99.90
2019-04-14T10:18:18.281Z,99.90
2019-04-14T10:20:47.722Z,99.90
2019-04-14T10:23:17.139Z,99.90
2019-04-14T10:25:46.567Z,99.90
2019-04-14T10:28:16.027Z,99.90
2019-04-14T10:30:47.591Z,99.90
2019-04-14T10:33:17.068Z,99.90
2019-04-14T10:35:46.464Z,99.90
2019-04-14T10:38:15.843Z,99.90
2019-04-14T10:40:45.249Z,99.90
2019-04-14T10:43:14.653Z,99.90
2019-04-14T10:45:44.076Z,99.90
2019-04-14T10:48:13.453Z,99.90
2019-04-14T10:50:42.834Z,99.90
2019-04-14T10:53:12.231Z,99.90
2019-04-14T10:55:41.663Z,99.90
2019-04-14T10:58:11.445Z,99.90
2019-04-14T11:00:47.564Z,99.90
2019-04-14T11:03:17.024Z,99.90
2019-04-14T11:06:01.690Z,99.90
2019-04-14T11:08:33.046Z,99.90
2019-04-14T11:11:02.570Z,99.90
2019-04-14T11:13:32.661Z,99.90
2019-04-14T11:16:02.084Z,99.90
2019-04-14T11:18:31.840Z,99.90
2019-04-14T11:21:01.355Z,99.90
2019-04-14T11:23:31.610Z,99.90
2019-04-14T11:26:01.032Z,99.90
2019-04-14T11:28:30.477Z,99.90
2019-04-14T11:31:00.223Z,99.90
2019-04-14T11:33:48.650Z,99.90
2019-04-14T11:36:39.818Z,99.90
2019-04-14T11:39:11.618Z,99.90
2019-04-14T11:41:41.013Z,99.90
2019-04-14T11:44:10.600Z,99.90
2019-04-14T11:46:40.118Z,99.90
2019-04-14T11:49:10.155Z,99.90
2019-04-14T11:51:39.548Z,99.90
2019-04-14T11:54:09.060Z,98.60
2019-04-14T11:56:39.497Z,98.00
2019-04-14T11:59:09.007Z,96.70
2019-04-14T12:01:47.417Z,95.20
2019-04-14T12:04:32.678Z,95.60
2019-04-14T12:07:25.517Z,96.70
2019-04-14T12:10:00.448Z,96.00
2019-04-14T12:12:30.631Z,96.90
2019-04-14T12:15:00.049Z,96.00
2019-04-14T12:17:29.566Z,95.40
2019-04-14T12:19:59.321Z,95.80
2019-04-14T12:22:28.719Z,96.30
2019-04-14T12:24:58.527Z,96.50
2019-04-14T12:27:29.983Z,95.90
2019-04-14T12:29:59.196Z,95.20
2019-04-14T12:32:30.855Z,95.90
2019-04-14T12:35:00.887Z,94.80
2019-04-14T12:37:30.480Z,94.60
2019-04-14T12:40:24.361Z,92.70
2019-04-14T12:43:17.250Z,92.80
2019-04-14T12:46:08.361Z,92.00
2019-04-14T12:48:49.385Z,91.40
2019-04-14T12:51:23.178Z,90.90
2019-04-14T12:53:52.553Z,91.40
2019-04-14T12:56:24.903Z,92.50
2019-04-14T12:59:16.295Z,92.00
2019-04-14T13:02:05.316Z,91.80
2019-04-14T13:04:35.480Z,91.10
2019-04-14T13:07:05.919Z,92.00
2019-04-14T13:09:35.832Z,91.70
2019-04-14T13:12:05.287Z,91.40
2019-04-14T13:14:34.783Z,91.50
2019-04-14T13:17:05.493Z,92.10
2019-04-14T13:19:36.098Z,92.00
2019-04-14T13:22:05.943Z,91.50
2019-04-14T13:24:35.567Z,90.60
2019-04-14T13:27:05.342Z,90.40
2019-04-14T13:29:35.119Z,91.10
2019-04-14T13:32:05.893Z,90.90
2019-04-14T13:34:35.824Z,90.10
2019-04-14T13:37:05.261Z,90.10
2019-04-14T13:39:34.645Z,90.40
2019-04-14T13:42:04.397Z,91.20
2019-04-14T13:44:34.842Z,91.70
2019-04-14T13:47:04.545Z,92.50
2019-04-14T13:49:34.082Z,93.10
2019-04-14T13:52:03.599Z,92.60
2019-04-14T13:54:33.464Z,92.60
2019-04-14T13:57:05.220Z,92.90
2019-04-14T13:59:34.918Z,92.80
2019-04-14T14:02:07.257Z,93.10
2019-04-14T14:04:39.003Z,92.70
2019-04-14T14:07:09.665Z,92.90
2019-04-14T14:09:40.205Z,92.30
2019-04-14T14:12:30.628Z,92.60
2019-04-14T14:15:30.796Z,93.00
2019-04-14T14:18:17.971Z,92.00
2019-04-14T14:21:12.395Z,90.60
2019-04-14T14:24:03.542Z,90.40
2019-04-14T14:26:34.154Z,90.20
2019-04-14T14:29:05.762Z,90.60
2019-04-14T14:31:35.643Z,91.20
2019-04-14T14:34:05.213Z,91.70
2019-04-14T14:36:34.638Z,92.70
2019-04-14T14:39:06.092Z,93.30
2019-04-14T14:41:36.587Z,92.80
2019-04-14T14:44:06.318Z,92.60
2019-04-14T14:46:47.752Z,92.40
2019-04-14T14:49:27.672Z,92.50
2019-04-14T14:52:04.487Z,92.90
2019-04-14T14:54:34.281Z,93.50
2019-04-14T14:57:03.730Z,94.10
2019-04-14T14:59:33.204Z,95.00
2019-04-14T15:02:05.387Z,95.50
2019-04-14T15:04:35.107Z,96.00
2019-04-14T15:07:06.580Z,96.30
2019-04-14T15:09:35.931Z,96.30
2019-04-14T15:12:05.369Z,96.30
2019-04-14T15:14:34.912Z,96.90
2019-04-14T15:17:04.380Z,97.10
2019-04-14T15:19:34.320Z,96.80
2019-04-14T15:22:03.842Z,97.30
2019-04-14T15:24:33.223Z,97.30
2019-04-14T15:27:04.793Z,97.30
2019-04-14T15:29:34.600Z,97.80
2019-04-14T15:32:04.154Z,97.80
2019-04-14T15:34:33.713Z,98.00
2019-04-14T15:37:03.652Z,97.90
2019-04-14T15:39:33.118Z,97.70
2019-04-14T15:42:02.869Z,97.80
2019-04-14T15:44:32.476Z,98.60
2019-04-14T15:47:02.005Z,99.30
2019-04-14T15:49:31.460Z,99.60
2019-04-14T15:52:00.840Z,99.60
2019-04-14T15:54:30.346Z,99.90
2019-04-14T15:57:25.130Z,99.90
2019-04-14T16:00:28.492Z,99.90
2019-04-14T16:03:20.495Z,99.90
2019-04-14T16:06:05.698Z,99.90
2019-04-14T16:08:44.757Z,99.90
2019-04-14T16:11:24.405Z,99.90
2019-04-14T16:14:11.249Z,99.90
2019-04-14T16:17:06.003Z,99.90
2019-04-14T16:19:46.752Z,99.90
2019-04-14T16:22:16.212Z,99.90
2019-04-14T16:24:45.710Z,99.90
2019-04-14T16:27:52.175Z,99.90
2019-04-14T16:30:36.674Z,99.90
2019-04-14T16:33:37.865Z,99.90
2019-04-14T16:36:07.849Z,99.90
2019-04-14T16:38:37.281Z,99.90
2019-04-14T16:41:07.060Z,99.90
2019-04-14T16:43:36.543Z,99.90
2019-04-14T16:46:06.387Z,99.90
2019-04-14T16:48:36.356Z,99.90
2019-04-14T16:51:07.451Z,99.90
2019-04-14T16:53:40.100Z,99.90
2019-04-14T16:56:31.650Z,99.90
2019-04-14T16:59:04.766Z,99.90
2019-04-14T17:01:36.974Z,99.90
2019-04-14T17:04:06.529Z,99.90
2019-04-14T17:06:39.098Z,99.90
2019-04-14T17:09:09.104Z,99.90
2019-04-14T17:11:39.379Z,99.90
2019-04-14T17:14:17.288Z,99.90
2019-04-14T17:16:58.342Z,99.90
2019-04-14T17:19:46.762Z,99.90
2019-04-14T17:22:35.122Z,99.90
2019-04-14T17:25:12.903Z,99.90
2019-04-14T17:28:01.841Z,99.90
2019-04-14T17:30:44.333Z,99.90
2019-04-14T17:33:23.372Z,99.90
2019-04-14T17:36:10.310Z,99.90
2019-04-14T17:38:58.681Z,99.90
2019-04-14T17:41:39.792Z,99.90
2019-04-14T17:44:17.127Z,99.90
2019-04-14T17:47:08.643Z,99.90
2019-04-14T17:49:54.145Z,99.90
2019-04-14T17:52:38.970Z,99.90
2019-04-14T17:55:15.496Z,99.90
2019-04-14T17:57:59.679Z,99.90
2019-04-14T18:01:00.065Z,99.90
2019-04-14T18:03:54.313Z,99.90
2019-04-14T18:06:27.730Z,99.90
2019-04-14T18:09:28.998Z,99.90
2019-04-14T18:12:13.661Z,99.90
2019-04-14T18:14:51.893Z,99.90
2019-04-14T18:17:44.314Z,99.90
2019-04-14T18:20:18.653Z,99.90
2019-04-14T18:22:48.085Z,99.90
2019-04-14T18:25:17.532Z,99.90
2019-04-14T18:28:14.972Z,99.90
2019-04-14T18:30:50.647Z,99.90
2019-04-14T18:33:41.721Z,99.90
2019-04-14T18:36:25.332Z,99.90
2019-04-14T18:39:01.313Z,99.90
2019-04-14T18:41:49.698Z,99.90
2019-04-14T18:44:26.407Z,99.90
2019-04-14T18:47:14.295Z,99.90
2019-04-14T18:49:55.368Z,99.90
2019-04-14T18:52:35.338Z,99.90
2019-04-14T18:55:18.320Z,99.90
2019-04-14T18:58:07.345Z,99.90
2019-04-14T19:00:44.101Z,99.90
2019-04-14T19:03:13.788Z,99.90
2019-04-14T19:05:43.506Z,99.90
2019-04-14T19:08:13.048Z,99.90
2019-04-14T19:10:44.890Z,99.90
2019-04-14T19:13:27.734Z,99.90
2019-04-14T19:16:09.800Z,99.90
2019-04-14T19:18:50.740Z,99.90
2019-04-14T19:21:23.217Z,99.90
2019-04-14T19:23:52.782Z,99.90
2019-04-14T19:26:22.283Z,99.90
2019-04-14T19:28:51.729Z,99.90
2019-04-14T19:31:21.211Z,99.90
2019-04-14T19:33:50.677Z,99.90
2019-04-14T19:36:20.174Z,99.90
2019-04-14T19:38:49.608Z,99.90
2019-04-14T19:41:19.027Z,99.90
2019-04-14T19:43:48.446Z,99.90
2019-04-14T19:46:17.907Z,99.90
2019-04-14T19:48:47.322Z,99.90
2019-04-14T19:51:16.800Z,99.90
2019-04-14T19:53:46.268Z,99.90
2019-04-14T19:56:15.950Z,99.90
2019-04-14T19:58:45.533Z,99.90
2019-04-14T20:01:16.616Z,99.90
2019-04-14T20:03:46.056Z,99.90
2019-04-14T20:06:15.461Z,99.90
2019-04-14T20:08:44.869Z,99.90
2019-04-14T20:11:14.303Z,99.90
2019-04-14T20:13:46.079Z,99.90
2019-04-14T20:16:44.617Z,99.90
2019-04-14T20:19:32.904Z,99.90
2019-04-14T20:22:12.344Z,99.90
2019-04-14T20:24:47.429Z,99.90
2019-04-14T20:27:31.792Z,99.90
2019-04-14T20:30:06.552Z,99.90
2019-04-14T20:32:37.307Z,99.90
2019-04-14T20:35:08.219Z,99.90
2019-04-14T20:37:37.778Z,99.90
2019-04-14T20:40:07.656Z,99.90
2019-04-14T20:42:37.069Z,99.90
2019-04-14T20:45:07.799Z,99.90
2019-04-14T20:47:37.361Z,99.90
2019-04-14T20:50:07.284Z,99.90
2019-04-14T20:52:36.708Z,99.90
2019-04-14T20:55:07.507Z,99.90
2019-04-14T20:57:36.891Z,99.90
2019-04-14T21:00:07.425Z,99.90
2019-04-14T21:02:58.568Z,99.90
2019-04-14T21:05:56.203Z,99.90
2019-04-14T21:08:44.491Z,99.90
2019-04-14T21:11:17.806Z,99.90
2019-04-14T21:14:09.153Z,99.90
2019-04-14T21:17:03.524Z,99.90
2019-04-14T21:19:54.631Z,99.90
2019-04-14T21:22:43.138Z,99.90
2019-04-14T21:25:32.273Z,99.90
2019-04-14T21:28:29.491Z,99.90
2019-04-14T21:31:17.136Z,99.90
2019-04-14T21:34:04.394Z,99.90
2019-04-14T21:36:38.896Z,99.90
2019-04-14T21:39:17.352Z,99.90
2019-04-14T21:41:49.712Z,99.90
2019-04-14T21:44:19.209Z,99.90
2019-04-14T21:46:48.970Z,99.90
2019-04-14T21:49:18.374Z,99.90
2019-04-14T21:52:05.245Z,99.90
2019-04-14T21:54:34.630Z,99.90
2019-04-14T21:57:29.127Z,99.90
2019-04-14T22:00:20.533Z,99.90
2019-04-14T22:03:19.820Z,99.90
2019-04-14T22:06:06.960Z,99.90
2019-04-14T22:08:40.929Z,99.90
2019-04-14T22:11:13.850Z,99.90
2019-04-14T22:13:43.309Z,99.90
2019-04-14T22:16:13.057Z,99.90
2019-04-14T22:18:42.510Z,99.90
2019-04-14T22:21:11.892Z,99.90
2019-04-14T22:23:41.251Z,99.90
2019-04-14T22:26:25.161Z,99.90
2019-04-14T22:28:43.940Z,99.90
2019-04-14T22:31:13.306Z,99.90
2019-04-14T22:33:42.667Z,99.90
2019-04-14T22:36:12.005Z,99.90
2019-04-14T22:38:41.375Z,99.90
2019-04-14T22:41:10.726Z,99.90
2019-04-14T22:43:40.187Z,99.90
2019-04-14T22:46:09.498Z,99.90
2019-04-14T22:48:39.550Z,99.90
2019-04-14T22:51:09.101Z,99.90
2019-04-14T22:53:38.517Z,99.90
2019-04-14T22:56:07.880Z,99.90
2019-04-14T22:58:37.536Z,99.90
2019-04-14T23:01:13.539Z,99.90
2019-04-14T23:04:07.598Z,99.90
2019-04-14T23:06:55.912Z,99.90
2019-04-14T23:09:39.332Z,99.90
2019-04-14T23:12:22.722Z,99.90
2019-04-14T23:15:09.943Z,99.90
2019-04-14T23:17:58.233Z,99.90
2019-04-14T23:20:35.956Z,99.90
2019-04-14T23:23:23.608Z,99.90
2019-04-14T23:25:52.965Z,99.90
2019-04-14T23:28:22.335Z,99.90
2019-04-14T23:30:51.691Z,99.90
2019-04-14T23:33:21.030Z,99.90
2019-04-14T23:35:50.356Z,99.90
2019-04-14T23:38:19.759Z,99.90
2019-04-14T23:40:49.065Z,99.90
2019-04-14T23:43:18.401Z,99.90
2019-04-14T23:45:47.773Z,99.90
2019-04-14T23:48:17.092Z,99.90
2019-04-14T23:50:46.616Z,99.90
2019-04-14T23:53:15.959Z,99.90
2019-04-14T23:55:45.323Z,99.90
2019-04-14T23:58:14.671Z,99.90
